Latest Coastal Weather Observations for Mandurah

IDW60701

Issued at 1:23 am WST Sunday 25 June 2017 (issued every 10 minutes, with the page automatically refreshed every 10 minutes)

About coastal observations | Map of coastal stations | Coastal observations for WA | Marine services | Other Formats
Station Details ID: 009977 Name: MANDURAH Lat: -32.52 Lon: 115.71 Height: 3.0 m
Data from the previous 72 hours. | See also: Recent months at Mandurah
Date/Time
WST
Temp
°C
Wind Pressure Rain since
9am
mm
Weather Cloud Vis
km
Sea
Height
m
Swell
Dir  Spd
kts
Gust
kts
hPa Trend Height
m
Period
s
Dir
25/01:00am 10.3 SE 6 9 1027.4 - 0.0 - - - - - - -
25/12:30am 10.8 SSE 6 8 1027.4 - 0.0 - - - - - - -
25/12:00am 11.1 SSE 6 9 1027.3 - 0.0 - - - - - - -
 
Date/Time
WST
Temp
°C
Wind Pressure Rain since
9am
mm
Weather Cloud Vis
km
Sea
Height
m
Swell
Dir  Spd
kts
Gust
kts
hPa Trend Height
m
Period
s
Dir
24/11:30pm 11.2 SSE 8 11 1027.4 - 0.0 - - - - - - -
24/11:00pm 11.0 SSE 6 9 1027.4 - 0.0 - - - - - - -
24/10:30pm 11.0 SE 7 10 1027.3 - 0.0 - - - - - - -
24/10:00pm 12.2 SE 6 9 1027.0 - 0.0 - - - - - - -
24/09:30pm 12.7 SSE 5 6 1026.7 - 0.0 - - - - - - -
24/09:00pm 13.2 SE 6 9 1026.4 - 0.0 - - - - - - -
24/08:30pm 13.2 SSE 4 6 1026.3 - 0.0 - - - - - - -
24/08:00pm 13.6 SSE 4 6 1026.2 - 0.0 - - - - - - -
24/07:30pm 13.3 SE 4 6 1026.2 - 0.0 - - - - - - -
24/07:00pm 13.1 ESE 4 5 1025.9 - 0.0 - - - - - - -
24/06:30pm 13.6 SE 4 5 1025.6 - 0.0 - - - - - - -
24/06:00pm 13.9 SE 3 4 1025.4 - 0.0 - - - - - - -
24/05:30pm 14.9 SE 5 8 1025.1 - 0.0 - - - - - - -
24/05:00pm 15.5 SE 7 9 1024.8 - 0.0 - - - - - - -
24/04:30pm 16.2 SE 9 13 1024.5 - 0.0 - - - - - - -
24/04:00pm 16.5 SE 9 17 1024.4 - 0.0 - - - - - - -
24/03:30pm 16.7 SE 10 15 1024.3 - 0.0 - - - - - - -
24/03:00pm 16.8 SE 10 15 1024.1 - 0.0 - - - - - - -
24/02:30pm 16.9 SSE 10 15 1024.0 - 0.0 - - - - - - -
24/02:00pm 17.0 SE 8 13 1024.0 - 0.0 - - - - - - -
24/01:30pm 17.2 SE 8 14 1024.2 - 0.0 - - - - - - -
24/01:00pm 17.0 SE 10 15 1024.6 - 0.0 - - - - - - -
24/12:30pm 16.8 ESE 7 11 1025.1 - 0.0 - - - - - - -
24/12:00pm 16.3 SE 8 13 1025.6 - 0.0 - - - - - - -
24/11:30am 16.0 SE 7 13 1026.0 - 0.0 - - - - - - -
24/11:00am 16.0 ESE 7 13 1026.4 - 0.0 - - - - - - -
24/10:30am 14.9 SE 9 13 1026.8 - 0.0 - - - - - - -
24/10:00am 14.2 ESE 8 14 1027.0 - 0.0 - - - - - - -
24/09:30am 13.1 SE 7 13 1026.9 - 0.0 - - - - - - -
24/09:00am 12.2 SE 4 7 1026.8 - 0.0 - - - - - - -
24/08:30am 11.7 SE 7 9 1026.8 - 0.0 - - - - - - -
24/08:00am 11.2 SE 8 11 1026.6 - 0.0 - - - - - - -
24/07:30am 10.7 SSE 6 9 1026.3 - 0.0 - - - - - - -
24/07:00am 10.9 SE 7 10 1025.8 - 0.0 - - - - - - -
24/06:30am 10.8 SSE 5 8 1025.5 - 0.0 - - - - - - -
24/06:00am 11.0 SE 6 8 1025.3 - 0.0 - - - - - - -
24/05:30am 11.2 SE 5 6 1025.2 - 0.0 - - - - - - -
24/05:00am 11.5 SSE 5 7 1025.0 - 0.0 - - - - - - -
24/04:30am 11.6 SE 5 8 1025.0 - 0.0 - - - - - - -
24/04:00am 11.4 SE 5 8 1025.1 - 0.0 - - - - - - -
24/03:30am 11.7 SE 7 9 1025.1 - 0.0 - - - - - - -
24/03:00am 11.8 SE 6 10 1025.1 - 0.0 - - - - - - -
24/02:30am 11.7 SE 6 9 1025.3 - 0.0 - - - - - - -
24/02:00am 11.9 SE 7 9 1025.1 - 0.0 - - - - - - -
24/01:30am 12.0 SE 7 10 1025.0 - 0.0 - - - - - - -
24/01:00am 12.2 SE 6 8 1024.9 - 0.0 - - - - - - -
24/12:30am 12.5 SE 7 9 1025.0 - 0.0 - - - - - - -
24/12:00am 12.6 SE 8 13 1024.9 - 0.0 - - - - - - -
 
Date/Time
WST
Temp
°C
Wind Pressure Rain since
9am
mm
Weather Cloud Vis
km
Sea
Height
m
Swell
Dir  Spd
kts
Gust
kts
hPa Trend Height
m
Period
s
Dir
23/11:30pm 12.9 SE 8 13 1024.9 - 0.0 - - - - - - -
23/11:00pm 13.3 SE 8 11 1024.9 - 0.0 - - - - - - -
23/10:30pm 13.5 SE 9 12 1024.7 - 0.0 - - - - - - -
23/10:00pm 13.8 SE 8 12 1024.6 - 0.0 - - - - - - -
23/09:30pm 14.2 SE 8 12 1024.4 - 0.0 - - - - - - -
23/09:00pm 14.6 SE 9 13 1024.1 - 0.0 - - - - - - -
23/08:30pm 14.9 SE 8 11 1023.9 - 0.0 - - - - - - -
23/08:00pm 15.2 SE 10 15 1023.7 - 0.0 - - - - - - -
23/07:30pm 15.4 SE 8 13 1023.6 - 0.0 - - - - - - -
23/07:00pm 15.4 SE 10 14 1023.3 - 0.0 - - - - - - -
23/06:30pm 15.7 SE 11 17 1023.1 - 0.0 - - - - - - -
23/06:00pm 15.9 SE 11 16 1022.4 - 0.0 - - - - - - -
23/05:30pm 16.1 SE 10 14 1021.7 - 0.0 - - - - - - -
23/05:00pm 16.6 SE 11 17 1021.4 - 0.0 - - - - - - -
23/04:30pm 17.1 SE 11 17 1020.9 - 0.0 - - - - - - -
23/04:00pm 17.6 SE 13 18 1020.6 - 0.0 - - - - - - -
23/03:30pm 18.3 SE 10 17 1020.2 - 0.0 - - - - - - -
23/03:00pm 18.4 ESE 15 22 1020.1 - 0.0 - - - - - - -
23/02:30pm 19.4 ESE 11 18 1019.9 - 0.0 - - - - - - -
23/02:00pm 19.1 ESE 12 18 1019.9 - 0.0 - - - - - - -
23/01:30pm 18.5 ESE 12 18 1020.0 - 0.0 - - - - - - -
23/01:00pm 18.9 ESE 12 17 1020.1 - 0.0 - - - - - - -
23/12:30pm 18.9 ESE 13 21 1020.4 - 0.0 - - - - - - -
23/12:00pm 18.2 ESE 12 20 1020.9 - 0.0 - - - - - - -
23/11:30am 17.7 ESE 11 19 1021.1 - 0.0 - - - - - - -
23/11:00am 17.0 ESE 12 21 1021.3 - 0.0 - - - - - - -
23/10:30am 16.9 SE 11 17 1021.2 - 0.0 - - - - - - -
23/10:00am 16.6 ESE 10 16 1020.9 - 0.0 - - - - - - -
23/09:30am 15.8 ESE 12 20 1020.7 - 0.0 - - - - - - -
23/09:00am 15.5 SE 10 15 1020.3 - 15.4 - - - - - - -
23/08:30am 15.4 SE 9 13 1019.9 - 15.4 - - - - - - -
23/08:00am 15.4 SE 9 14 1019.4 - 15.4 - - - - - - -
23/07:30am 15.2 SE 10 15 1018.8 - 15.4 - - - - - - -
23/07:00am 15.2 SE 10 16 1018.2 - 15.4 - - - - - - -
23/06:30am 15.3 SE 12 19 1017.6 - 15.4 - - - - - - -
23/06:00am 15.1 SE 11 17 1017.2 - 15.4 - - - - - - -
23/05:30am 15.1 SE 12 19 1016.5 - 15.4 - - - - - - -
23/05:00am 14.9 SE 11 18 1016.2 - 15.4 - - - - - - -
23/04:30am 14.9 SE 11 17 1015.8 - 15.4 - - - - - - -
23/04:00am 14.9 SE 12 18 1015.8 - 15.2 - - - - - - -
23/03:30am 15.1 SE 11 20 1015.6 - 15.2 - - - - - - -
23/03:00am 15.0 SE 12 17 1015.3 - 15.2 - - - - - - -
23/02:30am 14.7 SE 11 18 1015.1 - 15.2 - - - - - - -
23/02:00am 14.8 SE 13 22 1014.9 - 15.2 - - - - - - -
23/01:30am 14.6 SE 15 22 1014.6 - 15.2 - - - - - - -
23/01:00am 14.7 SE 11 19 1014.5 - 15.2 - - - - - - -
23/12:30am 15.0 SE 12 17 1014.3 - 15.2 - - - - - - -
23/12:00am 15.1 SE 15 26 1014.0 - 15.2 - - - - - - -
 
Date/Time
WST
Temp
°C
Wind Pressure Rain since
9am
mm
Weather Cloud Vis
km
Sea
Height
m
Swell
Dir  Spd
kts
Gust
kts
hPa Trend Height
m
Period
s
Dir
22/11:53pm 15.3 SE 16 26 1013.9 - 15.2 - - - - - - -
22/11:30pm 15.2 SE 14 21 1014.0 - 15.2 - - - - - - -
22/11:00pm 14.9 SSE 13 20 1013.8 - 15.2 - - - - - - -
22/10:30pm 14.7 SSE 13 22 1013.7 - 15.2 - - - - - - -
22/10:00pm 14.2 SSE 12 21 1013.6 - 15.2 - - - - - - -
22/09:30pm 14.1 SSE 10 15 1013.2 - 15.0 - - - - - - -
22/09:00pm 14.1 SSE 11 17 1013.1 - 14.8 Rain - - - - - -
22/08:30pm 13.9 S 12 19 1012.9 - 14.4 - - - - - - -
22/08:00pm 14.0 SSE 7 11 1013.1 - 14.0 - - - - - - -
22/07:30pm 14.2 S 13 19 1012.5 - 13.0 - - - - - - -
22/07:00pm 14.2 S 12 18 1012.3 - 12.6 - - - - - - -
22/06:30pm 14.2 S 12 18 1012.2 - 11.2 - - - - - - -
22/06:00pm 14.3 S 12 18 1011.8 - 9.0 Rain - - - - - -
22/05:30pm 14.5 S 13 21 1011.5 - 7.2 - - - - - - -
22/05:04pm 14.4 S 16 27 1011.1 - 5.4 - - - - - - -
22/05:00pm 14.5 S 15 23 1011.0 - 5.0 - - - - - - -
22/04:30pm 15.3 S 15 22 1010.5 - 3.2 - - - - - - -
22/04:00pm 15.3 S 14 21 1010.0 - 3.0 - - - - - - -
22/03:30pm 15.1 S 15 23 1009.5 - 2.8 - - - - - - -
22/03:00pm 14.9 S 12 19 1009.2 - 2.6 - - - - - - -
22/02:30pm 14.8 SSW 12 20 1008.7 - 2.6 - - - - - - -
22/02:00pm 14.9 S 11 19 1008.2 - 2.6 - - - - - - -
22/01:30pm 14.9 S 12 19 1007.9 - 2.6 - - - - - - -
22/01:00pm 14.9 S 14 22 1007.7 - 2.6 - - - - - - -
22/12:30pm 14.6 S 14 22 1007.1 - 2.6 - - - - - - -
22/12:00pm 14.8 S 13 21 1007.1 - 2.6 - - - - - - -
22/11:30am 14.8 S 14 20 1006.6 - 2.6 - - - - - - -
22/11:00am 14.5 S 14 21 1006.5 - 2.6 - - - - - - -
22/10:30am 14.3 S 17 25 1005.7 - 2.6 - - - - - - -
22/10:00am 13.8 S 16 22 1004.8 - 2.6 - - - - - - -
22/09:34am 13.5 SSW 16 26 1004.2 - 2.4 - - - - - - -
22/09:30am 13.7 S 16 24 1003.9 - 2.2 - - - - - - -
22/09:00am 13.6 SSE 22 33 1002.2 - 32.4 Rain - - - - - -
22/08:32am 14.1 S 21 31 1001.6 - 29.0 - - - - - - -
22/08:30am 14.0 S 22 31 1001.5 - 28.8 - - - - - - -
22/08:26am 14.0 S 20 31 1001.4 - 28.4 - - - - - - -
22/08:00am 14.8 SSE 12 20 1000.2 - 26.4 - - - - - - -
22/07:30am 14.9 SE 13 19 998.5 - 26.0 - - - - - - -
22/07:00am 16.2 ENE 12 19 998.2 - 25.8 - - - - - - -
22/06:30am 16.0 NE 15 26 999.0 - 24.0 - - - - - - -
22/06:17am 14.8 NE 18 33 999.3 - 24.0 - - - - - - -
22/06:00am 14.6 NE 20 25 999.6 - 23.2 Rain - - - - - -
22/05:30am 15.2 NE 24 31 1000.7 - 22.4 - - - - - - -
22/05:03am 14.7 NNE 24 35 1001.6 - 20.2 - - - - - - -
22/05:00am 14.4 NNE 25 33 1001.7 - 20.2 - - - - - - -
22/04:43am 15.1 NNE 24 35 1002.2 - 18.2 - - - - - - -
22/04:30am 14.9 NNE 29 37 1002.8 - 17.0 - - - - - - -
22/04:00am 15.6 N 29 38 1003.6 - 14.8 - - - - - - -
22/03:50am 16.4 N 25 35 1003.6 - 14.2 - - - - - - -
22/03:30am 15.7 N 25 32 1004.1 - 13.8 - - - - - - -
22/03:00am 16.8 NNW 24 30 1004.5 - 13.2 Recent precip. - - - - - -
22/02:30am 17.1 NNW 21 27 1005.0 - 13.0 - - - - - - -
22/02:20am 16.8 N 22 27 1005.7 - 12.8 - - - - - - -
22/02:00am 14.8 NNE 20 28 1005.8 - 12.0 - - - - - - -
22/01:30am 15.0 NNE 21 32 1006.7 - 9.8 - - - - - - -

Other Formats:

Comma delimited format used in spreadsheet applications
http://www.bom.gov.au/fwo/IDW60701/IDW60701.94605.axf

JavaScript Object Notation format (JSON) in row-major order
http://www.bom.gov.au/fwo/IDW60701/IDW60701.94605.json